Time;durP1;ratioP1;P1;durP2;ratioP2;P2;SDS_P1;SDS_P2;PMS_P1;PMS_P2;Temp;Humidity;BMP_temperature;BMP_pressure;BME280_temperature;BME280_humidity;BME280_pressure;Samples;Min_cycle;Max_cycle;Signal;HPM_P1;HPM_P2
2021/11/21 00:00:16;;;;;;;51.92;39.20;;;3.20;99.90;;;;;;4158762;28;20033;-48
2021/11/21 00:04:45;;;;;;;48.78;38.20;;;3.20;99.90;;;;;;4157935;28;20061;-49
2021/11/21 00:06:47;;;;;;;48.80;36.75;;;3.30;99.90;;;;;;4162554;28;20080;-47
2021/11/21 00:08:49;;;;;;;53.03;36.05;;;3.30;99.90;;;;;;4159463;28;20073;-49
2021/11/21 00:10:52;;;;;;;56.47;43.42;;;3.30;99.90;;;;;;4161967;28;20041;-48
2021/11/21 00:12:54;;;;;;;44.65;32.20;;;3.20;99.90;;;;;;4158318;28;20433;-49
2021/11/21 00:14:56;;;;;;;43.85;32.33;;;3.20;99.90;;;;;;4162174;28;20072;-47
2021/11/21 00:17:01;;;;;;;57.05;33.55;;;3.40;99.90;;;;;;4156602;28;20072;-49
2021/11/21 00:19:03;;;;;;;51.45;34.53;;;3.50;99.90;;;;;;4161631;28;20048;-52
2021/11/21 00:21:06;;;;;;;41.42;30.38;;;3.50;99.90;;;;;;4157400;28;20112;-50
2021/11/21 00:23:08;;;;;;;;;;;3.50;99.90;;;;;;4163006;28;20033;-47
2021/11/21 00:25:10;;;;;;;171.02;30.58;;;3.20;99.90;;;;;;4157237;28;20398;-49
2021/11/21 00:27:12;;;;;;;321.85;36.35;;;2.90;99.90;;;;;;4152763;28;20045;-47
2021/11/21 00:29:15;;;;;;;272.40;33.47;;;2.60;99.90;;;;;;4156858;28;20381;-48
2021/11/21 00:31:18;;;;;;;317.38;33.70;;;2.50;99.90;;;;;;4160178;28;20097;-51
2021/11/21 00:33:20;;;;;;;247.40;32.95;;;2.30;99.90;;;;;;4156149;28;20046;-50
2021/11/21 00:35:23;;;;;;;181.13;28.00;;;2.30;99.90;;;;;;4155441;28;20505;-49
2021/11/21 00:37:28;;;;;;;143.38;25.50;;;2.30;99.90;;;;;;4156921;28;20039;-48
2021/11/21 00:39:30;;;;;;;62.00;21.75;;;2.30;99.90;;;;;;4160427;28;20087;-48
2021/11/21 00:41:32;;;;;;;148.38;22.20;;;2.30;99.90;;;;;;4159491;28;20040;-52
2021/11/21 00:43:34;;;;;;;99.15;24.40;;;2.30;99.90;;;;;;4160935;28;20046;-53
2021/11/21 00:45:36;;;;;;;20.73;18.67;;;2.50;99.90;;;;;;4155598;28;20033;-54
2021/11/21 00:47:40;;;;;;;59.92;21.35;;;2.50;99.90;;;;;;4154649;28;20516;-53
2021/11/21 00:49:43;;;;;;;66.28;22.95;;;2.60;99.90;;;;;;4156838;28;20084;-53
2021/11/21 00:51:45;;;;;;;65.45;22.85;;;2.40;99.90;;;;;;4157473;28;20046;-53
2021/11/21 00:53:52;;;;;;;55.50;22.95;;;2.30;99.90;;;;;;4158878;28;20068;-54
2021/11/21 00:56:02;;;;;;;64.47;20.33;;;2.20;99.90;;;;;;4155709;28;20104;-51
2021/11/21 00:58:06;;;;;;;31.77;20.10;;;2.20;99.90;;;;;;4153168;28;20092;-53
2021/11/21 01:00:11;;;;;;;50.53;19.90;;;2.20;99.90;;;;;;4156684;28;20030;-53
2021/11/21 01:02:16;;;;;;;31.23;19.25;;;2.20;99.90;;;;;;4158753;28;20046;-53
2021/11/21 01:04:19;;;;;;;49.55;20.23;;;2.10;99.90;;;;;;4159877;28;20036;-53
2021/11/21 01:06:21;;;;;;;20.77;18.67;;;2.20;99.90;;;;;;4158306;28;20037;-54
2021/11/21 01:08:24;;;;;;;20.70;18.08;;;2.20;99.90;;;;;;4155300;28;20091;-53
2021/11/21 01:10:28;;;;;;;37.95;20.50;;;2.30;99.90;;;;;;4161059;28;20547;-54
2021/11/21 01:12:30;;;;;;;20.00;15.90;;;2.30;99.90;;;;;;4159829;28;20065;-54
2021/11/21 01:14:33;;;;;;;19.65;18.23;;;2.20;99.90;;;;;;4158892;28;20041;-53
2021/11/21 01:16:36;;;;;;;20.85;19.15;;;2.30;99.90;;;;;;4158789;28;20046;-53
2021/11/21 01:18:38;;;;;;;48.03;19.60;;;2.40;99.90;;;;;;4158918;28;20038;-53
2021/11/21 01:20:41;;;;;;;19.85;18.13;;;2.40;99.90;;;;;;4151375;28;20552;-54
2021/11/21 01:22:43;;;;;;;16.92;15.60;;;2.40;99.90;;;;;;4158696;28;20068;-53
2021/11/21 01:24:45;;;;;;;18.17;16.27;;;2.60;99.90;;;;;;4149815;28;20489;-54
2021/11/21 01:26:48;;;;;;;50.38;18.38;;;2.70;99.90;;;;;;4160643;28;20038;-54
2021/11/21 01:28:50;;;;;;;62.40;22.17;;;2.70;99.90;;;;;;4159546;28;20042;-54
2021/11/21 01:30:52;;;;;;;20.75;16.45;;;2.50;99.90;;;;;;4158724;28;20116;-53
2021/11/21 01:32:55;;;;;;;72.15;26.40;;;2.50;99.90;;;;;;4149450;28;20081;-54
2021/11/21 01:34:57;;;;;;;67.53;29.25;;;2.40;99.90;;;;;;4159442;28;20041;-54
2021/11/21 01:36:59;;;;;;;60.97;22.25;;;2.20;99.90;;;;;;4152093;28;20037;-54
2021/11/21 01:39:02;;;;;;;77.90;24.27;;;2.10;99.90;;;;;;4160177;28;20068;-54
2021/11/21 01:41:04;;;;;;;56.28;22.92;;;2.10;99.90;;;;;;4159793;28;20061;-52
2021/11/21 01:43:07;;;;;;;30.17;17.40;;;2.20;99.90;;;;;;4163220;28;20112;-53
2021/11/21 01:45:10;;;;;;;15.02;13.57;;;2.30;99.90;;;;;;4161898;28;20410;-53
2021/11/21 01:47:12;;;;;;;35.22;16.38;;;2.50;99.90;;;;;;4163031;28;20469;-52
2021/11/21 01:49:14;;;;;;;103.95;27.02;;;2.60;99.90;;;;;;4162263;28;20048;-53
2021/11/21 01:51:16;;;;;;;395.85;46.60;;;2.50;99.90;;;;;;4161530;28;20477;-54
2021/11/21 01:53:18;;;;;;;30.55;23.92;;;2.40;99.90;;;;;;4156553;28;20062;-54
2021/11/21 01:55:21;;;;;;;88.82;25.95;;;2.40;99.90;;;;;;4164372;28;20083;-54
2021/11/21 01:57:25;;;;;;;151.50;27.77;;;2.40;99.90;;;;;;4160501;28;20378;-53
2021/11/21 01:59:27;;;;;;;304.92;33.70;;;2.30;99.90;;;;;;4161141;28;20073;-53
2021/11/21 02:01:29;;;;;;;102.55;22.85;;;2.20;99.90;;;;;;4159324;28;20439;-53
2021/11/21 02:03:31;;;;;;;188.85;27.92;;;2.20;99.90;;;;;;4163483;28;20046;-53
2021/11/21 02:05:33;;;;;;;210.43;25.80;;;2.20;99.90;;;;;;4159611;28;20053;-52
2021/11/21 02:07:36;;;;;;;83.30;22.73;;;2.20;99.90;;;;;;4162761;28;20084;-53
2021/11/21 02:09:38;;;;;;;147.45;25.08;;;2.20;99.90;;;;;;4160633;28;20125;-53
2021/11/21 02:11:40;;;;;;;141.63;23.30;;;2.10;99.90;;;;;;4161944;28;20132;-54
2021/11/21 02:13:42;;;;;;;39.40;20.13;;;2.10;99.90;;;;;;4162277;28;20124;-54
2021/11/21 02:15:44;;;;;;;24.73;20.40;;;2.10;99.90;;;;;;4162680;28;20493;-53
2021/11/21 02:17:47;;;;;;;218.05;27.70;;;2.10;99.90;;;;;;4159436;28;20477;-54
2021/11/21 02:19:49;;;;;;;95.63;21.60;;;2.10;99.90;;;;;;4162532;28;20065;-53
2021/11/21 02:21:51;;;;;;;131.50;21.83;;;2.00;99.90;;;;;;4160110;28;20076;-53
2021/11/21 02:23:53;;;;;;;40.58;18.00;;;1.90;99.90;;;;;;4162576;28;20048;-53
2021/11/21 02:25:55;;;;;;;21.00;16.40;;;1.90;99.90;;;;;;4159641;28;20520;-53
2021/11/21 02:27:58;;;;;;;103.13;20.17;;;2.10;99.90;;;;;;4161700;28;20048;-54
2021/11/21 02:30:00;;;;;;;;;;;2.00;99.90;;;;;;4159770;28;20042;-54
2021/11/21 02:32:02;;;;;;;67.50;17.88;;;2.10;99.90;;;;;;4158566;28;19926;-53
2021/11/21 02:34:05;;;;;;;118.25;19.98;;;1.90;99.90;;;;;;4157457;28;20124;-53
2021/11/21 02:36:08;;;;;;;84.88;20.75;;;1.90;99.90;;;;;;4162901;28;20136;-53
2021/11/21 02:38:12;;;;;;;61.15;19.92;;;1.90;99.90;;;;;;4157190;28;20034;-52
2021/11/21 02:40:16;;;;;;;77.75;20.38;;;1.90;99.90;;;;;;4156089;28;20088;-54
2021/11/21 02:42:34;;;;;;;89.20;21.40;;;2.00;99.90;;;;;;4160176;28;20060;-54
2021/11/21 02:44:36;;;;;;;66.90;20.27;;;1.90;99.90;;;;;;4155636;28;20037;-53
2021/11/21 02:46:38;;;;;;;88.60;21.73;;;1.90;99.90;;;;;;4159635;28;20485;-52
2021/11/21 02:48:40;;;;;;;98.20;18.95;;;1.90;99.90;;;;;;4162029;28;20053;-53
2021/11/21 02:50:43;;;;;;;128.75;21.63;;;1.80;99.90;;;;;;4156411;28;20049;-52
2021/11/21 02:52:46;;;;;;;48.97;18.77;;;1.70;99.90;;;;;;4149092;28;20042;-52
2021/11/21 02:54:54;;;;;;;83.35;22.30;;;1.70;99.90;;;;;;4158733;28;20739;-54
2021/11/21 02:56:56;;;;;;;61.67;21.77;;;1.80;99.90;;;;;;4150392;28;20042;-54
2021/11/21 02:58:58;;;;;;;19.30;17.52;;;1.80;99.90;;;;;;4160593;28;20120;-54
2021/11/21 03:01:10;;;;;;;38.80;17.98;;;1.90;99.90;;;;;;4160912;28;20061;-53
2021/11/21 03:03:14;;;;;;;73.22;19.92;;;1.90;99.90;;;;;;4160520;28;20072;-53
2021/11/21 03:05:18;;;;;;;30.27;16.58;;;2.00;99.90;;;;;;4159036;28;20058;-51
2021/11/21 03:07:20;;;;;;;24.35;18.10;;;1.90;99.90;;;;;;4159878;28;20440;-52
2021/11/21 03:09:23;;;;;;;38.67;17.75;;;1.90;99.90;;;;;;4160379;28;20107;-52
2021/11/21 03:11:30;;;;;;;;;;;1.80;99.90;;;;;;4160160;28;20148;-54
2021/11/21 03:13:32;;;;;;;111.97;31.30;;;1.90;99.90;;;;;;4154569;28;19968;-54
2021/11/21 03:15:35;;;;;;;192.52;43.60;;;1.80;99.90;;;;;;4162359;28;20108;-54
2021/11/21 03:17:39;;;;;;;189.52;32.20;;;1.80;99.90;;;;;;4159760;28;20048;-53
2021/11/21 03:19:41;;;;;;;109.40;30.27;;;1.80;99.90;;;;;;4160561;28;20401;-54
2021/11/21 03:21:43;;;;;;;190.70;28.48;;;1.80;99.90;;;;;;4159722;28;20068;-53
2021/11/21 03:23:46;;;;;;;124.55;27.73;;;1.80;99.90;;;;;;4159567;28;20077;-52
2021/11/21 03:25:48;;;;;;;57.38;25.88;;;1.80;99.90;;;;;;4157849;28;20040;-53
2021/11/21 03:27:50;;;;;;;46.70;25.30;;;1.80;99.90;;;;;;4161891;28;20501;-53
2021/11/21 03:29:52;;;;;;;;;;;1.80;99.90;;;;;;4160181;28;20059;-52
2021/11/21 03:31:54;;;;;;;50.20;19.13;;;1.90;99.90;;;;;;4161407;28;19976;-53
2021/11/21 03:33:56;;;;;;;112.45;25.52;;;1.90;99.90;;;;;;4158369;28;20080;-53
2021/11/21 03:35:58;;;;;;;53.40;22.92;;;1.90;99.90;;;;;;4161347;28;20374;-53
2021/11/21 03:38:01;;;;;;;48.05;22.08;;;1.90;99.90;;;;;;4159059;28;20034;-52
2021/11/21 03:40:06;;;;;;;43.55;20.50;;;2.00;99.90;;;;;;4157872;28;20065;-54
2021/11/21 03:42:08;;;;;;;70.68;24.73;;;1.90;99.90;;;;;;4152835;28;20497;-53
2021/11/21 03:44:10;;;;;;;126.80;33.88;;;2.00;99.90;;;;;;4160823;28;20061;-53
2021/11/21 03:46:12;;;;;;;48.45;26.35;;;2.00;99.90;;;;;;4158221;28;20454;-53
2021/11/21 03:48:14;;;;;;;34.47;24.50;;;2.10;99.90;;;;;;4161066;28;20768;-53
2021/11/21 03:50:18;;;;;;;78.28;25.98;;;2.00;99.90;;;;;;4159045;28;20389;-50
2021/11/21 03:52:20;;;;;;;42.53;19.52;;;2.10;99.90;;;;;;4161496;28;20038;-52
2021/11/21 03:54:22;;;;;;;49.60;19.73;;;2.00;99.90;;;;;;4158075;28;20033;-52
2021/11/21 03:56:24;;;;;;;138.05;26.30;;;2.00;99.90;;;;;;4161920;28;20037;-52
2021/11/21 03:58:26;;;;;;;118.70;23.73;;;2.00;99.90;;;;;;4157722;28;20369;-53
2021/11/21 04:00:28;;;;;;;138.68;22.27;;;1.90;99.90;;;;;;4156443;28;20103;-54
2021/11/21 04:02:31;;;;;;;61.40;19.48;;;1.80;99.90;;;;;;4153757;28;20042;-54
2021/11/21 04:04:33;;;;;;;64.78;22.48;;;1.80;99.90;;;;;;4160788;28;20046;-53
2021/11/21 04:06:35;;;;;;;125.38;22.83;;;1.80;99.90;;;;;;4152567;28;20092;-53
2021/11/21 04:08:39;;;;;;;170.45;24.67;;;1.70;99.90;;;;;;4162178;28;20137;-52
2021/11/21 04:10:41;;;;;;;52.63;21.05;;;1.70;99.90;;;;;;4158629;28;20120;-53
2021/11/21 04:12:44;;;;;;;22.83;21.20;;;1.70;99.90;;;;;;4157491;28;20049;-53
2021/11/21 04:14:46;;;;;;;79.25;19.25;;;1.80;99.90;;;;;;4159609;28;20038;-52
2021/11/21 04:16:48;;;;;;;84.55;21.15;;;1.80;99.90;;;;;;4161950;28;20037;-53
2021/11/21 04:18:50;;;;;;;38.55;17.98;;;1.90;99.90;;;;;;4158063;28;20045;-53
2021/11/21 04:20:52;;;;;;;23.02;17.77;;;1.80;99.90;;;;;;4151871;28;20543;-53
2021/11/21 04:22:54;;;;;;;41.42;14.60;;;1.90;99.90;;;;;;4155443;28;20034;-51
2021/11/21 04:25:00;;;;;;;49.42;16.63;;;1.90;99.90;;;;;;4158324;28;20047;-52
2021/11/21 04:27:02;;;;;;;23.60;15.48;;;1.90;99.90;;;;;;4156178;28;20044;-53
2021/11/21 04:29:04;;;;;;;24.23;12.50;;;2.00;99.90;;;;;;4161767;28;20120;-53
2021/11/21 04:31:06;;;;;;;81.25;17.08;;;1.90;99.90;;;;;;4158289;28;20045;-53
2021/11/21 04:33:08;;;;;;;94.55;17.33;;;1.90;99.90;;;;;;4156068;28;20047;-54
2021/11/21 04:35:12;;;;;;;39.70;16.17;;;2.00;99.90;;;;;;4157763;28;20105;-52
2021/11/21 04:37:14;;;;;;;50.85;14.85;;;2.00;99.90;;;;;;4161414;28;20657;-53
2021/11/21 04:39:16;;;;;;;42.83;15.38;;;2.00;99.90;;;;;;4157912;28;20586;-53
2021/11/21 04:41:18;;;;;;;21.00;15.30;;;2.00;99.90;;;;;;4155110;28;20398;-53
2021/11/21 04:43:21;;;;;;;24.50;15.10;;;2.00;99.90;;;;;;4158287;28;20065;-54
2021/11/21 04:45:23;;;;;;;38.95;14.82;;;2.00;99.90;;;;;;4160510;28;20042;-52
2021/11/21 04:47:25;;;;;;;51.72;18.00;;;2.10;99.90;;;;;;4158070;28;20059;-53
2021/11/21 04:49:27;;;;;;;70.53;18.67;;;2.00;99.90;;;;;;4159412;28;20049;-52
2021/11/21 04:51:30;;;;;;;19.38;18.17;;;2.00;99.90;;;;;;4157841;28;20437;-53
2021/11/21 04:53:32;;;;;;;20.25;18.13;;;2.10;99.90;;;;;;4160378;28;20073;-53
2021/11/21 04:55:34;;;;;;;19.88;18.45;;;2.10;99.90;;;;;;4156412;28;20041;-53
2021/11/21 04:57:39;;;;;;;18.50;16.63;;;2.10;99.90;;;;;;4161465;28;20080;-52
2021/11/21 04:59:42;;;;;;;17.52;15.80;;;2.10;99.90;;;;;;4159119;28;20065;-53
2021/11/21 05:01:44;;;;;;;17.35;14.10;;;2.20;99.90;;;;;;4161188;28;20061;-51
2021/11/21 05:03:46;;;;;;;14.73;13.40;;;2.20;99.90;;;;;;4159682;28;20037;-53
2021/11/21 05:05:48;;;;;;;12.43;11.23;;;2.20;99.90;;;;;;4147515;28;20116;-53
2021/11/21 05:07:51;;;;;;;98.15;14.80;;;2.20;99.90;;;;;;4157752;28;20128;-54
2021/11/21 05:09:53;;;;;;;182.63;20.30;;;2.20;99.90;;;;;;4161634;28;20042;-53
2021/11/21 05:11:55;;;;;;;25.30;12.23;;;2.00;99.90;;;;;;4157942;28;20073;-53
2021/11/21 05:13:57;;;;;;;13.27;12.30;;;1.90;99.90;;;;;;4160702;28;20052;-52
2021/11/21 05:15:59;;;;;;;13.52;12.70;;;2.00;99.90;;;;;;4159906;28;20026;-53
2021/11/21 05:18:01;;;;;;;55.25;15.55;;;2.10;99.90;;;;;;4162498;28;20454;-51
2021/11/21 05:20:04;;;;;;;23.77;13.90;;;2.20;99.90;;;;;;4156944;28;20029;-54
2021/11/21 05:22:06;;;;;;;15.13;12.73;;;2.10;99.90;;;;;;4154076;28;20484;-52
2021/11/21 05:24:09;;;;;;;13.18;12.48;;;2.10;99.90;;;;;;4163002;28;20038;-53
2021/11/21 05:26:11;;;;;;;46.05;15.02;;;2.10;99.90;;;;;;4164751;28;20120;-52
2021/11/21 05:28:14;;;;;;;14.10;12.88;;;2.00;99.90;;;;;;4162637;28;20104;-52
2021/11/21 05:30:19;;;;;;;40.30;12.85;;;2.00;99.90;;;;;;4163274;28;20044;-53
2021/11/21 05:32:21;;;;;;;13.98;12.88;;;2.00;99.90;;;;;;4162702;28;20112;-52
2021/11/21 05:34:23;;;;;;;13.00;12.45;;;2.00;99.90;;;;;;4162643;28;20389;-54
2021/11/21 05:36:25;;;;;;;32.15;13.65;;;2.00;99.90;;;;;;4162170;28;20120;-53
2021/11/21 05:38:27;;;;;;;14.15;12.75;;;2.10;99.90;;;;;;4163950;28;20033;-52
2021/11/21 05:40:29;;;;;;;13.02;12.45;;;2.00;99.90;;;;;;4156461;28;20030;-53
2021/11/21 05:42:31;;;;;;;14.73;13.52;;;2.10;99.90;;;;;;4149965;28;20144;-54
2021/11/21 05:44:33;;;;;;;13.50;12.95;;;2.10;99.90;;;;;;4162537;28;20107;-53
2021/11/21 05:46:35;;;;;;;12.32;11.65;;;2.00;99.90;;;;;;4158369;28;20496;-54
2021/11/21 05:48:37;;;;;;;14.23;13.52;;;2.00;99.90;;;;;;4162521;28;20136;-53
2021/11/21 05:50:39;;;;;;;14.20;13.55;;;1.90;99.90;;;;;;4154466;28;20065;-53
2021/11/21 05:52:43;;;;;;;12.73;12.13;;;2.00;99.90;;;;;;4163416;28;20034;-53
2021/11/21 05:54:45;;;;;;;12.60;11.85;;;2.00;99.90;;;;;;4160756;28;20072;-51
2021/11/21 05:56:47;;;;;;;12.32;11.73;;;2.00;99.90;;;;;;4163665;28;20096;-52
2021/11/21 05:58:49;;;;;;;13.57;13.02;;;2.10;99.90;;;;;;4161856;28;20735;-52
2021/11/21 06:00:52;;;;;;;14.10;13.32;;;2.10;99.90;;;;;;4163203;28;20042;-53
2021/11/21 06:02:55;;;;;;;13.02;12.43;;;2.20;99.90;;;;;;4155381;28;20493;-53
2021/11/21 06:04:57;;;;;;;13.55;12.27;;;2.30;99.90;;;;;;4160326;28;20087;-53
2021/11/21 06:06:59;;;;;;;12.18;11.23;;;2.40;99.90;;;;;;4161331;28;20037;-52
2021/11/21 06:09:02;;;;;;;13.27;12.57;;;2.40;99.90;;;;;;4160791;28;20116;-52
2021/11/21 06:11:04;;;;;;;13.55;12.52;;;2.40;99.90;;;;;;4162260;28;20099;-52
2021/11/21 06:13:08;;;;;;;13.75;12.95;;;2.40;99.90;;;;;;4162502;28;20041;-53
2021/11/21 06:15:11;;;;;;;14.32;13.55;;;2.40;99.90;;;;;;4161322;28;20026;-52
2021/11/21 06:17:13;;;;;;;32.90;23.85;;;2.40;99.90;;;;;;4161530;28;20116;-54
2021/11/21 06:19:15;;;;;;;27.55;21.77;;;2.40;99.90;;;;;;4161578;28;20052;-53
2021/11/21 06:21:18;;;;;;;25.75;23.20;;;2.40;99.90;;;;;;4162054;28;20469;-53
2021/11/21 06:23:20;;;;;;;17.20;16.08;;;2.30;99.90;;;;;;4161828;28;20029;-52
2021/11/21 06:25:22;;;;;;;18.27;17.20;;;2.30;99.90;;;;;;4156581;28;20097;-53
2021/11/21 06:27:24;;;;;;;17.52;16.60;;;2.20;99.90;;;;;;4152495;28;20523;-52
2021/11/21 06:29:26;;;;;;;18.40;16.92;;;2.20;99.90;;;;;;4161597;28;20041;-53
2021/11/21 06:31:29;;;;;;;14.70;13.80;;;2.20;99.90;;;;;;4160115;28;20559;-53
2021/11/21 06:33:31;;;;;;;17.27;16.17;;;2.20;99.90;;;;;;4163581;28;20045;-54
2021/11/21 06:35:36;;;;;;;18.20;17.05;;;2.20;99.90;;;;;;4156965;28;20373;-53
2021/11/21 06:37:38;;;;;;;17.10;15.85;;;2.30;99.90;;;;;;4153479;28;20054;-53
2021/11/21 06:39:41;;;;;;;12.55;12.02;;;2.30;99.90;;;;;;4154009;28;20060;-53
2021/11/21 06:41:43;;;;;;;12.15;11.75;;;2.30;99.90;;;;;;4161808;28;20129;-54
2021/11/21 06:43:45;;;;;;;16.15;15.45;;;2.30;99.90;;;;;;4161233;28;20042;-52
2021/11/21 06:45:47;;;;;;;15.82;15.02;;;2.40;99.90;;;;;;4153985;28;20257;-53
2021/11/21 06:47:50;;;;;;;14.27;13.68;;;2.30;99.90;;;;;;4157179;28;20141;-53
2021/11/21 06:49:52;;;;;;;12.18;11.68;;;2.40;99.90;;;;;;4163268;28;20121;-53
2021/11/21 06:51:54;;;;;;;11.95;11.48;;;2.40;99.90;;;;;;4160235;28;20037;-53
2021/11/21 06:53:57;;;;;;;10.88;10.23;;;2.40;99.90;;;;;;4163106;28;20045;-53
2021/11/21 06:55:59;;;;;;;12.70;12.18;;;2.40;99.90;;;;;;4159587;28;20073;-53
2021/11/21 06:58:01;;;;;;;12.00;11.45;;;2.50;99.90;;;;;;4153102;28;20077;-53
2021/11/21 07:00:08;;;;;;;10.52;10.13;;;2.50;99.90;;;;;;4156111;28;20116;-53
2021/11/21 07:02:10;;;;;;;11.05;10.23;;;2.60;99.90;;;;;;4161420;28;20072;-53
2021/11/21 07:04:13;;;;;;;10.75;10.25;;;2.60;99.90;;;;;;4157622;28;20052;-54
2021/11/21 07:06:29;;;;;;;16.83;10.20;;;2.70;99.90;;;;;;4158632;28;20436;-54
2021/11/21 07:08:32;;;;;;;10.10;9.57;;;2.70;99.90;;;;;;4159339;28;20064;-53
2021/11/21 07:10:34;;;;;;;11.80;10.88;;;2.70;99.90;;;;;;4146891;28;20501;-53
2021/11/21 07:12:36;;;;;;;13.20;11.43;;;2.70;99.90;;;;;;4157978;28;20382;-53
2021/11/21 07:14:46;;;;;;;14.30;13.20;;;2.70;99.90;;;;;;4161813;28;20041;-53
2021/11/21 07:16:49;;;;;;;17.52;16.33;;;2.70;99.90;;;;;;4160006;28;20080;-52
2021/11/21 07:18:51;;;;;;;17.48;16.17;;;2.60;99.90;;;;;;4160922;28;20038;-53
2021/11/21 07:20:53;;;;;;;18.55;17.08;;;2.60;99.90;;;;;;4160499;28;20064;-53
2021/11/21 07:22:55;;;;;;;31.33;25.52;;;2.60;99.90;;;;;;4162624;28;20539;-52
2021/11/21 07:24:57;;;;;;;25.45;23.02;;;2.60;99.90;;;;;;4157471;28;20077;-53
2021/11/21 07:27:00;;;;;;;23.92;19.85;;;2.60;99.90;;;;;;4153711;28;20133;-52
2021/11/21 07:29:02;;;;;;;;;;;2.70;99.90;;;;;;4160727;28;20099;-53
2021/11/21 07:31:05;;;;;;;15.85;14.02;;;2.80;99.90;;;;;;4159626;28;19964;-53
2021/11/21 07:33:07;;;;;;;;;;;2.80;99.90;;;;;;4160513;28;20039;-54
2021/11/21 07:35:10;;;;;;;13.13;12.00;;;2.90;99.90;;;;;;4160061;28;19967;-54
2021/11/21 07:37:12;;;;;;;15.27;13.70;;;2.90;99.90;;;;;;4158172;28;20048;-53
2021/11/21 07:39:14;;;;;;;22.83;14.27;;;3.00;99.90;;;;;;4148156;28;20069;-54
2021/11/21 07:41:16;;;;;;;17.55;12.70;;;2.90;99.90;;;;;;4158908;28;20037;-53
2021/11/21 07:43:20;;;;;;;24.88;15.13;;;2.90;99.90;;;;;;4159868;28;20095;-54
2021/11/21 07:45:22;;;;;;;89.57;18.92;;;3.00;99.90;;;;;;4160720;28;20038;-52
2021/11/21 07:47:24;;;;;;;14.98;13.45;;;3.00;99.90;;;;;;4153759;28;20065;-54
2021/11/21 07:49:26;;;;;;;21.17;14.05;;;3.00;99.90;;;;;;4156351;28;20112;-53
2021/11/21 07:51:28;;;;;;;22.23;14.43;;;3.20;99.90;;;;;;4160255;28;20138;-53
2021/11/21 07:53:30;;;;;;;23.73;17.10;;;3.20;99.90;;;;;;4160365;28;20124;-53
2021/11/21 07:55:32;;;;;;;37.72;22.65;;;3.30;99.90;;;;;;4157190;28;20088;-54
2021/11/21 07:57:34;;;;;;;39.60;23.55;;;3.40;99.90;;;;;;4158040;28;20069;-54
2021/11/21 07:59:36;;;;;;;39.85;24.08;;;3.40;99.90;;;;;;4160357;28;20362;-54
2021/11/21 08:01:39;;;;;;;31.92;17.05;;;3.40;99.90;;;;;;4160566;28;20054;-54
2021/11/21 08:03:41;;;;;;;28.05;17.13;;;3.50;99.90;;;;;;4160456;28;20049;-53
2021/11/21 08:05:43;;;;;;;27.25;16.90;;;3.70;99.90;;;;;;4158301;28;20386;-54
2021/11/21 08:07:46;;;;;;;35.75;19.90;;;3.80;99.90;;;;;;4159845;28;20045;-53
2021/11/21 08:09:48;;;;;;;35.65;19.13;;;3.90;99.90;;;;;;4159944;28;20094;-53
2021/11/21 08:11:50;;;;;;;27.35;16.90;;;3.90;99.90;;;;;;4159563;28;20065;-54
2021/11/21 08:13:53;;;;;;;36.97;20.10;;;4.00;99.90;;;;;;4161280;28;20489;-54
2021/11/21 08:15:56;;;;;;;31.95;19.48;;;4.00;99.90;;;;;;4158841;28;20038;-53
2021/11/21 08:17:58;;;;;;;33.78;19.98;;;4.10;99.90;;;;;;4158681;28;20525;-53
2021/11/21 08:20:01;;;;;;;26.30;17.85;;;4.00;99.90;;;;;;4159048;28;20593;-54
2021/11/21 08:22:03;;;;;;;;;;;4.10;99.90;;;;;;4161135;28;20520;-53
2021/11/21 08:24:07;;;;;;;95.03;37.72;;;4.10;99.90;;;;;;4151611;28;20012;-54
2021/11/21 08:26:09;;;;;;;43.13;26.35;;;4.00;99.90;;;;;;4158872;28;20088;-53
2021/11/21 08:28:11;;;;;;;46.97;29.25;;;4.00;99.90;;;;;;4159122;28;20049;-54
2021/11/21 08:30:13;;;;;;;44.08;24.83;;;4.10;99.90;;;;;;4156063;28;20038;-54
2021/11/21 08:32:17;;;;;;;46.90;22.10;;;4.10;99.90;;;;;;4151030;28;20053;-53
2021/11/21 08:34:20;;;;;;;45.33;21.33;;;4.00;99.90;;;;;;4161266;28;20164;-53
2021/11/21 08:36:22;;;;;;;26.67;13.27;;;4.00;99.90;;;;;;4151609;28;20037;-54
2021/11/21 08:38:24;;;;;;;24.25;12.43;;;4.00;99.90;;;;;;4159709;28;20048;-52
2021/11/21 08:40:28;;;;;;;52.05;19.27;;;4.10;99.90;;;;;;4160713;28;20061;-54
2021/11/21 08:42:32;;;;;;;26.35;17.75;;;4.20;99.90;;;;;;4160570;28;20441;-52
2021/11/21 08:44:35;;;;;;;36.40;19.45;;;4.20;99.90;;;;;;4159764;28;20087;-53
2021/11/21 08:46:37;;;;;;;;;;;4.30;99.90;;;;;;4161664;28;20426;-53
2021/11/21 08:48:39;;;;;;;76.13;15.65;;;4.40;99.90;;;;;;4157932;28;19937;-53
2021/11/21 08:50:41;;;;;;;38.30;13.15;;;4.40;99.90;;;;;;4161230;28;20607;-54
2021/11/21 08:52:43;;;;;;;23.83;12.40;;;4.50;99.90;;;;;;4160790;28;20754;-54
2021/11/21 08:54:45;;;;;;;53.05;14.95;;;4.60;99.90;;;;;;4163146;28;20087;-54
2021/11/21 08:56:49;;;;;;;34.47;13.75;;;4.60;99.90;;;;;;4161656;28;20064;-54
2021/11/21 08:58:51;;;;;;;40.83;14.70;;;4.50;99.90;;;;;;4164112;28;20088;-54
2021/11/21 09:00:53;;;;;;;44.03;10.77;;;4.70;99.90;;;;;;4160946;28;20065;-54
2021/11/21 09:02:56;;;;;;;16.90;11.35;;;4.70;99.90;;;;;;4165197;28;20041;-53
2021/11/21 09:04:58;;;;;;;56.42;23.10;;;4.80;99.90;;;;;;4161255;28;20042;-52
2021/11/21 09:07:00;;;;;;;48.75;18.05;;;4.80;99.90;;;;;;4157803;28;20037;-53
2021/11/21 09:09:03;;;;;;;16.75;13.13;;;4.90;99.90;;;;;;4158825;28;20753;-53
2021/11/21 09:11:05;;;;;;;58.13;11.40;;;5.10;99.90;;;;;;4161599;28;20112;-53
2021/11/21 09:13:07;;;;;;;22.48;14.48;;;5.10;99.90;;;;;;4161683;28;20492;-53
2021/11/21 09:15:14;;;;;;;20.05;13.65;;;5.10;99.90;;;;;;4157285;28;20042;-54
2021/11/21 09:17:16;;;;;;;90.38;20.50;;;5.00;99.90;;;;;;4158007;28;20381;-54
2021/11/21 09:19:18;;;;;;;25.58;15.15;;;5.00;99.90;;;;;;4164205;28;20045;-53
2021/11/21 09:21:20;;;;;;;26.58;18.25;;;5.00;99.90;;;;;;4162650;28;20076;-53
2021/11/21 09:23:23;;;;;;;19.55;13.30;;;5.20;99.90;;;;;;4163623;28;20087;-53
2021/11/21 09:25:25;;;;;;;14.93;12.40;;;5.30;99.90;;;;;;4158150;28;20041;-52
2021/11/21 09:27:27;;;;;;;15.63;12.48;;;5.40;99.90;;;;;;4151822;28;20096;-53
2021/11/21 09:29:29;;;;;;;21.77;13.98;;;5.30;99.90;;;;;;4159242;28;20049;-53
2021/11/21 09:31:32;;;;;;;16.33;14.10;;;5.30;99.90;;;;;;4163490;28;20080;-53
2021/11/21 09:33:35;;;;;;;19.65;16.60;;;5.30;99.90;;;;;;4161193;28;20041;-54
2021/11/21 09:35:37;;;;;;;22.85;16.00;;;5.50;99.90;;;;;;4163557;28;20107;-53
2021/11/21 09:37:39;;;;;;;;;;;5.70;99.90;;;;;;4160837;28;20075;-53
2021/11/21 09:39:41;;;;;;;15.68;13.25;;;5.90;99.90;;;;;;4164337;28;20284;-53
2021/11/21 09:41:44;;;;;;;17.38;15.20;;;6.10;99.90;;;;;;4158311;28;20057;-51
2021/11/21 09:43:46;;;;;;;15.02;13.20;;;6.20;99.90;;;;;;4164544;28;20045;-52
2021/11/21 09:45:49;;;;;;;20.35;14.43;;;6.20;99.90;;;;;;4160223;28;20056;-54
2021/11/21 09:47:56;;;;;;;45.42;15.43;;;6.10;99.90;;;;;;4163802;28;20400;-52
2021/11/21 09:50:06;;;;;;;79.82;49.83;;;6.10;99.90;;;;;;4162341;28;20038;-53
2021/11/21 09:52:12;;;;;;;21.75;19.08;;;6.00;99.90;;;;;;4164381;28;20133;-53
2021/11/21 09:54:15;;;;;;;19.60;13.82;;;6.00;99.90;;;;;;4161482;28;20481;-53
2021/11/21 09:56:17;;;;;;;15.07;13.60;;;6.00;99.90;;;;;;4162282;28;20421;-53
2021/11/21 09:58:19;;;;;;;16.30;14.60;;;5.90;99.90;;;;;;4160994;28;20367;-53
2021/11/21 10:00:24;;;;;;;20.95;18.73;;;5.90;99.90;;;;;;4163647;28;20049;-52
2021/11/21 10:02:32;;;;;;;26.02;20.27;;;6.20;99.90;;;;;;4156332;28;20120;-53
2021/11/21 10:04:43;;;;;;;22.27;18.85;;;6.30;99.90;;;;;;4161211;28;20448;-53
2021/11/21 10:06:46;;;;;;;20.50;15.82;;;6.30;99.90;;;;;;4159848;28;20105;-53
2021/11/21 10:08:51;;;;;;;16.48;14.88;;;6.50;99.90;;;;;;4162459;28;20124;-52
2021/11/21 10:11:01;;;;;;;14.63;13.32;;;6.70;99.90;;;;;;4160648;28;20076;-53
2021/11/21 10:13:03;;;;;;;24.60;19.27;;;6.90;99.90;;;;;;4163892;28;20478;-53
2021/11/21 10:15:07;;;;;;;24.65;19.70;;;7.00;99.90;;;;;;4161321;28;20385;-53
2021/11/21 10:17:21;;;;;;;26.35;21.85;;;7.10;99.90;;;;;;4161703;28;20112;-52
2021/11/21 10:19:23;;;;;;;44.67;33.63;;;7.30;99.90;;;;;;4160916;28;20045;-53
2021/11/21 10:21:34;;;;;;;48.30;33.17;;;7.70;99.90;;;;;;4160855;28;20069;-53
2021/11/21 10:23:36;;;;;;;40.72;32.67;;;7.80;99.90;;;;;;4160402;28;20050;-53
2021/11/21 10:25:38;;;;;;;41.15;30.00;;;7.70;99.90;;;;;;4151696;28;20384;-53
2021/11/21 10:27:41;;;;;;;32.40;25.90;;;7.70;99.90;;;;;;4162441;28;20076;-53
2021/11/21 10:29:46;;;;;;;24.05;17.55;;;8.00;99.90;;;;;;4159234;28;20048;-53
2021/11/21 10:31:48;;;;;;;20.58;17.27;;;8.00;99.90;;;;;;4162223;28;20065;-53
2021/11/21 10:33:58;;;;;;;19.55;17.23;;;8.30;99.90;;;;;;4161985;28;20116;-53